Time;durP1;ratioP1;P1;durP2;ratioP2;P2;SDS_P1;SDS_P2;PMS_P1;PMS_P2;Temp;Humidity;BMP_temperature;BMP_pressure;BME280_temperature;BME280_humidity;BME280_pressure;Samples;Min_cycle;Max_cycle;Signal;HPM_P1;HPM_P2
2022/10/28 00:01:26;;;;;;;6.53;3.75;;;16.00;99.90;;;;;;5110763;28;20292;-81
2022/10/28 00:03:55;;;;;;;6.85;3.80;;;15.90;99.90;;;;;;5102973;28;20213;-81
2022/10/28 00:06:24;;;;;;;7.35;3.42;;;15.90;99.90;;;;;;5093959;28;20205;-81
2022/10/28 00:08:51;;;;;;;8.27;3.97;;;15.90;99.90;;;;;;5110286;28;20209;-81
2022/10/28 00:11:20;;;;;;;10.40;4.13;;;16.00;99.90;;;;;;5111115;28;20216;-81
2022/10/28 00:13:48;;;;;;;10.15;3.88;;;16.30;99.90;;;;;;5106926;28;20208;-81
2022/10/28 00:16:18;;;;;;;9.30;4.13;;;16.50;99.90;;;;;;5112003;28;20688;-81
2022/10/28 00:18:45;;;;;;;9.90;3.42;;;16.70;99.90;;;;;;5109939;28;20461;-81
2022/10/28 00:21:14;;;;;;;7.47;3.70;;;17.10;99.90;;;;;;5110367;28;20563;-81
2022/10/28 00:23:41;;;;;;;10.25;4.50;;;17.20;99.90;;;;;;5112250;28;20200;-81
2022/10/28 00:26:10;;;;;;;6.03;3.47;;;17.40;99.90;;;;;;5097086;28;20204;-81
2022/10/28 00:28:41;;;;;;;6.90;3.53;;;17.40;99.90;;;;;;5116582;28;20207;-81
2022/10/28 00:31:10;;;;;;;6.45;3.60;;;17.30;99.90;;;;;;5108789;28;20217;-81
2022/10/28 00:33:37;;;;;;;10.80;4.00;;;17.30;99.90;;;;;;5108644;28;20205;-81
2022/10/28 00:36:12;;;;;;;11.88;3.67;;;17.30;99.90;;;;;;5115533;28;20192;-81
2022/10/28 00:38:39;;;;;;;8.48;4.07;;;17.30;99.90;;;;;;5102465;28;20201;-81
2022/10/28 00:41:06;;;;;;;9.07;3.33;;;17.50;99.90;;;;;;5095025;28;20188;-81
2022/10/28 00:43:38;;;;;;;9.23;3.50;;;17.50;99.90;;;;;;5116578;28;20191;-81
2022/10/28 00:46:13;;;;;;;8.20;3.63;;;17.40;99.90;;;;;;5106860;28;20201;-81
2022/10/28 00:48:41;;;;;;;8.10;3.72;;;17.30;99.90;;;;;;5110744;28;20196;-81
2022/10/28 00:51:09;;;;;;;7.03;3.47;;;17.20;99.90;;;;;;5103127;28;20533;-81
2022/10/28 00:53:38;;;;;;;9.35;3.53;;;17.10;99.90;;;;;;5113947;28;20611;-81
2022/10/28 00:56:07;;;;;;;9.88;3.88;;;17.00;99.90;;;;;;5114241;28;20198;-81
2022/10/28 00:58:34;;;;;;;9.32;3.80;;;17.00;99.90;;;;;;5116703;28;20201;-81
2022/10/28 01:01:01;;;;;;;6.03;3.67;;;16.90;99.90;;;;;;5115792;28;20203;-81
2022/10/28 01:03:29;;;;;;;7.60;3.53;;;16.80;99.90;;;;;;5115187;28;20205;-81
2022/10/28 01:05:57;;;;;;;7.70;3.65;;;16.70;99.90;;;;;;5116331;28;20201;-81
2022/10/28 01:08:24;;;;;;;7.13;3.35;;;16.70;99.90;;;;;;5108075;28;20570;-81
2022/10/28 01:11:20;;;;;;;11.20;3.55;;;16.80;99.90;;;;;;5095328;28;20228;-81
2022/10/28 01:14:03;;;;;;;9.32;3.85;;;16.70;99.90;;;;;;5076777;28;20591;-81
2022/10/28 01:16:39;;;;;;;9.48;3.95;;;16.60;99.90;;;;;;5107627;28;20199;-81
2022/10/28 01:19:33;;;;;;;13.55;3.75;;;16.70;99.90;;;;;;5096411;28;20217;-81
2022/10/28 01:22:16;;;;;;;11.68;4.35;;;16.60;99.90;;;;;;5109715;28;20193;-81
2022/10/28 01:25:02;;;;;;;5.80;3.53;;;16.50;99.90;;;;;;5106017;28;20193;-81
2022/10/28 01:27:55;;;;;;;10.13;3.92;;;16.50;99.90;;;;;;5106547;28;20201;-80
2022/10/28 01:30:24;;;;;;;6.80;3.50;;;16.40;99.90;;;;;;5102493;28;20703;-81
2022/10/28 01:32:58;;;;;;;6.65;3.47;;;16.40;99.90;;;;;;5098732;28;20205;-81
2022/10/28 01:35:30;;;;;;;7.88;3.78;;;16.40;99.90;;;;;;5094872;28;20197;-81
2022/10/28 01:38:16;;;;;;;9.27;4.30;;;16.40;99.90;;;;;;5111350;28;20216;-81
2022/10/28 01:40:48;;;;;;;10.25;3.53;;;16.40;99.90;;;;;;5110102;28;20217;-81
2022/10/28 01:43:23;;;;;;;8.20;3.60;;;16.30;99.90;;;;;;5113597;28;20205;-81
2022/10/28 01:45:55;;;;;;;8.75;3.80;;;16.20;99.90;;;;;;5113079;28;20211;-81
2022/10/28 01:48:29;;;;;;;7.47;3.50;;;16.10;99.90;;;;;;5093473;28;20190;-81
2022/10/28 01:51:02;;;;;;;9.48;3.58;;;16.00;99.90;;;;;;5094727;28;20227;-81
2022/10/28 01:53:33;;;;;;;8.13;3.70;;;16.00;99.90;;;;;;5094411;28;20201;-81
2022/10/28 01:56:04;;;;;;;6.25;3.63;;;16.00;99.90;;;;;;5113192;28;20645;-81
2022/10/28 01:58:33;;;;;;;9.73;4.00;;;16.00;99.90;;;;;;5105761;28;20197;-81
2022/10/28 02:01:01;;;;;;;11.75;3.88;;;15.90;99.90;;;;;;5105658;28;20216;-81
2022/10/28 02:03:29;;;;;;;8.30;4.57;;;15.90;99.90;;;;;;5115353;28;20405;-81
2022/10/28 02:05:58;;;;;;;10.50;4.40;;;16.00;99.90;;;;;;5094761;28;20491;-81
2022/10/28 02:08:44;;;;;;;9.00;4.30;;;16.10;99.90;;;;;;5094738;28;20198;-81
2022/10/28 02:11:30;;;;;;;9.63;3.80;;;16.30;99.90;;;;;;5104414;28;20262;-81
2022/10/28 02:14:04;;;;;;;7.85;3.65;;;16.10;99.90;;;;;;5114699;28;20207;-81
2022/10/28 02:16:42;;;;;;;8.77;3.55;;;16.10;99.90;;;;;;5115581;28;20200;-81
2022/10/28 02:19:18;;;;;;;10.73;4.00;;;16.00;99.90;;;;;;5097523;28;20224;-81
2022/10/28 02:21:55;;;;;;;11.75;3.25;;;15.90;99.90;;;;;;5093855;28;20204;-81
2022/10/28 02:24:33;;;;;;;8.43;3.80;;;15.80;99.90;;;;;;5094093;28;20198;-81
2022/10/28 02:27:11;;;;;;;5.40;3.72;;;15.80;99.90;;;;;;5094370;28;20200;-81
2022/10/28 02:29:44;;;;;;;9.57;3.72;;;15.60;99.90;;;;;;5093777;28;20744;-80
2022/10/28 02:32:16;;;;;;;6.20;3.70;;;15.50;99.90;;;;;;5094241;28;20221;-81
2022/10/28 02:34:47;;;;;;;11.15;4.80;;;15.50;99.90;;;;;;5101369;28;20185;-81
2022/10/28 02:37:19;;;;;;;10.40;4.60;;;15.50;99.90;;;;;;5114784;28;20596;-81
2022/10/28 02:39:52;;;;;;;8.50;4.65;;;15.50;99.90;;;;;;5114486;28;20229;-82
2022/10/28 02:42:22;;;;;;;7.18;4.43;;;15.50;99.90;;;;;;5100725;28;20658;-81
2022/10/28 02:44:54;;;;;;;9.57;4.15;;;15.50;99.90;;;;;;5113711;28;20212;-81
2022/10/28 02:47:23;;;;;;;8.38;3.53;;;15.40;99.90;;;;;;5114398;28;20204;-81
2022/10/28 02:49:56;;;;;;;11.27;4.22;;;15.40;99.90;;;;;;5113360;28;20220;-81
2022/10/28 02:52:28;;;;;;;6.88;3.80;;;15.40;99.90;;;;;;5096883;28;20217;-81
2022/10/28 02:54:57;;;;;;;8.98;3.78;;;15.40;99.90;;;;;;5093551;28;20198;-81
2022/10/28 02:57:26;;;;;;;6.38;4.00;;;15.40;99.90;;;;;;5094056;28;20204;-81
2022/10/28 02:59:54;;;;;;;7.72;3.88;;;15.50;99.90;;;;;;5093097;28;20214;-81
2022/10/28 03:02:22;;;;;;;8.73;3.65;;;15.60;99.90;;;;;;5105674;28;20193;-80
2022/10/28 03:04:48;;;;;;;7.68;3.63;;;15.60;99.90;;;;;;5094074;28;20212;-81
2022/10/28 03:07:17;;;;;;;10.43;4.18;;;15.60;99.90;;;;;;5094345;28;20197;-81
2022/10/28 03:09:43;;;;;;;9.60;3.75;;;15.70;99.90;;;;;;5094078;28;20221;-81
2022/10/28 03:12:10;;;;;;;10.07;4.50;;;15.60;99.90;;;;;;5093505;28;20229;-81
2022/10/28 03:14:37;;;;;;;7.45;4.03;;;15.70;99.90;;;;;;5093946;28;20201;-81
2022/10/28 03:17:04;;;;;;;14.45;4.47;;;16.10;99.90;;;;;;5093538;28;20582;-81
2022/10/28 03:19:31;;;;;;;9.63;4.00;;;16.40;99.90;;;;;;5100822;28;20217;-81
2022/10/28 03:21:58;;;;;;;9.02;4.00;;;16.30;99.90;;;;;;5107210;27;20201;-81
2022/10/28 03:24:26;;;;;;;11.20;3.58;;;16.20;99.90;;;;;;5107314;28;20205;-81
2022/10/28 03:26:52;;;;;;;5.78;3.67;;;16.20;99.90;;;;;;5105768;28;20213;-81
2022/10/28 03:29:19;;;;;;;8.57;3.65;;;16.20;99.90;;;;;;5112547;28;20255;-81
2022/10/28 03:31:46;;;;;;;9.95;3.90;;;16.20;99.90;;;;;;5112421;28;20212;-81
2022/10/28 03:34:13;;;;;;;9.43;4.75;;;16.10;99.90;;;;;;5112237;28;20208;-81
2022/10/28 03:36:40;;;;;;;8.40;4.32;;;16.20;99.90;;;;;;5112962;28;20209;-81
2022/10/28 03:39:07;;;;;;;6.68;3.67;;;16.10;99.90;;;;;;5091563;28;20218;-81
2022/10/28 03:41:35;;;;;;;6.88;3.30;;;16.30;99.90;;;;;;5092144;28;20204;-81
2022/10/28 03:44:01;;;;;;;10.50;4.00;;;16.80;99.90;;;;;;5112959;28;20219;-81
2022/10/28 03:46:28;;;;;;;8.40;3.63;;;16.60;99.90;;;;;;5113587;28;20590;-81
2022/10/28 03:48:55;;;;;;;9.75;3.80;;;16.40;99.90;;;;;;5113823;28;20228;-80
2022/10/28 03:51:23;;;;;;;17.67;7.53;;;16.50;99.90;;;;;;5111653;28;20223;-81
2022/10/28 03:53:49;;;;;;;39.38;31.60;;;16.40;99.90;;;;;;5104588;28;20200;-81
2022/10/28 03:56:16;;;;;;;14.18;6.18;;;16.30;99.90;;;;;;5111981;28;20208;-81
2022/10/28 03:58:47;;;;;;;7.78;4.22;;;16.30;99.90;;;;;;5113491;28;20205;-81
2022/10/28 04:01:14;;;;;;;7.95;3.95;;;16.10;99.90;;;;;;5109368;28;20638;-80
2022/10/28 04:03:40;;;;;;;7.43;4.00;;;16.00;99.90;;;;;;5103887;28;20580;-80
2022/10/28 04:06:08;;;;;;;9.30;3.90;;;15.90;99.90;;;;;;5109899;28;20212;-81
2022/10/28 04:08:36;;;;;;;11.68;4.10;;;15.90;99.90;;;;;;5114064;28;20215;-81
2022/10/28 04:11:03;;;;;;;10.13;4.15;;;15.70;99.90;;;;;;5110895;28;20203;-81
2022/10/28 04:13:30;;;;;;;6.57;3.40;;;15.70;99.90;;;;;;5108177;28;20208;-81
2022/10/28 04:15:58;;;;;;;10.50;4.32;;;15.60;99.90;;;;;;5109586;28;20274;-81
2022/10/28 04:18:25;;;;;;;8.50;3.83;;;15.60;99.90;;;;;;5113702;28;20264;-81
2022/10/28 04:20:52;;;;;;;6.68;3.67;;;15.50;99.90;;;;;;5106965;28;20702;-81
2022/10/28 04:23:19;;;;;;;9.20;3.70;;;15.50;99.90;;;;;;5108655;28;20307;-81
2022/10/28 04:25:46;;;;;;;10.85;4.22;;;15.40;99.90;;;;;;5107729;28;20575;-81
2022/10/28 04:28:14;;;;;;;11.02;4.22;;;15.40;99.90;;;;;;5106589;28;20201;-81
2022/10/28 04:30:40;;;;;;;7.28;3.60;;;15.40;99.90;;;;;;5110781;28;20256;-81
2022/10/28 04:33:11;;;;;;;9.90;4.03;;;15.40;99.90;;;;;;5112025;28;20311;-81
2022/10/28 04:35:41;;;;;;;25.23;18.63;;;15.40;99.90;;;;;;5102290;28;20205;-81
2022/10/28 04:38:08;;;;;;;11.95;4.63;;;15.50;99.90;;;;;;5106083;28;20287;-81
2022/10/28 04:40:35;;;;;;;9.93;3.72;;;15.50;99.90;;;;;;5110011;28;20226;-81
2022/10/28 04:43:04;;;;;;;10.85;4.13;;;15.60;99.90;;;;;;5108299;27;20196;-81
2022/10/28 04:45:31;;;;;;;9.13;3.88;;;15.90;99.90;;;;;;5103453;28;20201;-81
2022/10/28 04:47:59;;;;;;;7.68;3.75;;;16.20;99.90;;;;;;5107235;28;20210;-81
2022/10/28 04:50:28;;;;;;;9.82;3.83;;;16.10;99.90;;;;;;5113334;28;20232;-81
2022/10/28 04:52:54;;;;;;;7.68;3.67;;;16.40;99.90;;;;;;5110647;28;20225;-81
2022/10/28 04:55:24;;;;;;;7.60;3.58;;;16.50;99.90;;;;;;5111610;28;20193;-81
2022/10/28 04:57:55;;;;;;;11.60;3.97;;;16.50;99.90;;;;;;5111376;28;20197;-82
2022/10/28 05:00:22;;;;;;;10.50;4.32;;;16.40;99.90;;;;;;5107595;28;20228;-82
2022/10/28 05:02:49;;;;;;;13.85;4.03;;;16.30;99.90;;;;;;5108193;28;20663;-81
2022/10/28 05:05:17;;;;;;;11.63;3.97;;;16.80;99.90;;;;;;5108381;28;20189;-82
2022/10/28 05:07:46;;;;;;;9.30;4.10;;;16.60;99.90;;;;;;5108630;28;20209;-81
2022/10/28 05:10:14;;;;;;;9.60;3.88;;;16.40;99.90;;;;;;5112746;28;20224;-81
2022/10/28 05:12:41;;;;;;;7.78;3.65;;;16.20;99.90;;;;;;5116973;27;20233;-81
2022/10/28 05:15:11;;;;;;;10.45;3.60;;;16.20;99.90;;;;;;5113459;28;20252;-80
2022/10/28 05:17:39;;;;;;;11.48;4.00;;;16.10;99.90;;;;;;5106650;28;20207;-80
2022/10/28 05:20:07;;;;;;;11.20;4.05;;;16.20;99.90;;;;;;5114012;28;20221;-81
2022/10/28 05:22:34;;;;;;;9.93;3.75;;;16.00;99.90;;;;;;5115350;27;20201;-81
2022/10/28 05:25:03;;;;;;;7.45;3.65;;;16.10;99.90;;;;;;5115450;27;20204;-80
2022/10/28 05:27:30;;;;;;;8.13;3.78;;;16.40;99.90;;;;;;5110928;28;20198;-80
2022/10/28 05:29:57;;;;;;;10.27;3.67;;;16.20;99.90;;;;;;5112942;28;20303;-80
2022/10/28 05:32:24;;;;;;;15.50;5.90;;;16.40;99.90;;;;;;5106400;28;20231;-80
2022/10/28 05:34:50;;;;;;;6.25;3.85;;;16.70;99.90;;;;;;5113266;27;20201;-81
2022/10/28 05:37:17;;;;;;;15.43;4.38;;;16.50;99.90;;;;;;5108802;28;20649;-80
2022/10/28 05:39:44;;;;;;;9.48;4.10;;;16.70;99.90;;;;;;5111846;27;20897;-80
2022/10/28 05:42:12;;;;;;;10.02;3.85;;;16.50;99.90;;;;;;5113176;27;20288;-80
2022/10/28 05:44:39;;;;;;;8.27;3.80;;;17.10;99.90;;;;;;5115567;27;20642;-80
2022/10/28 05:47:11;;;;;;;9.35;3.97;;;17.00;99.90;;;;;;5112440;27;20208;-80
2022/10/28 05:49:39;;;;;;;11.68;3.63;;;17.10;99.90;;;;;;5111147;27;20224;-81
2022/10/28 05:52:06;;;;;;;7.10;3.50;;;17.00;99.90;;;;;;5115985;28;20668;-80
2022/10/28 05:54:32;;;;;;;8.00;3.60;;;17.00;99.90;;;;;;5114381;28;20293;-80
2022/10/28 05:56:59;;;;;;;7.80;3.20;;;16.90;99.90;;;;;;5113593;27;20189;-80
2022/10/28 05:59:27;;;;;;;8.85;3.55;;;17.10;99.90;;;;;;5114034;27;20483;-79
2022/10/28 06:01:57;;;;;;;7.60;3.78;;;17.10;99.90;;;;;;5110506;28;20579;-80
2022/10/28 06:04:24;;;;;;;10.02;4.38;;;17.00;99.90;;;;;;5104981;28;20290;-80
2022/10/28 06:06:53;;;;;;;8.20;3.30;;;17.20;99.90;;;;;;5113746;28;20800;-79
2022/10/28 06:09:20;;;;;;;15.90;4.40;;;17.40;1.00;;;;;;5116744;27;20224;-80
2022/10/28 06:11:47;;;;;;;10.18;3.63;;;17.40;1.00;;;;;;5115849;27;20225;-80
2022/10/28 06:14:15;;;;;;;8.85;3.47;;;17.50;1.00;;;;;;5111385;28;20200;-80
2022/10/28 06:16:43;;;;;;;7.13;3.47;;;17.20;1.00;;;;;;5115891;27;20213;-80
2022/10/28 06:19:09;;;;;;;10.32;3.53;;;17.00;99.90;;;;;;5115491;27;20221;-80
2022/10/28 06:21:36;;;;;;;8.52;3.50;;;17.10;99.90;;;;;;5113019;28;20200;-80
2022/10/28 06:24:03;;;;;;;8.48;3.42;;;17.20;1.00;;;;;;5113148;28;20201;-80
2022/10/28 06:26:30;;;;;;;7.40;3.45;;;17.50;1.00;;;;;;5109751;28;20224;-80
2022/10/28 06:28:57;;;;;;;16.35;4.55;;;17.20;1.00;;;;;;5113352;27;20693;-80
2022/10/28 06:31:24;;;;;;;8.55;3.40;;;17.10;9.50;;;;;;5112983;27;20204;-80
2022/10/28 06:33:52;;;;;;;8.48;3.22;;;17.00;99.90;;;;;;5107802;28;20213;-80
2022/10/28 06:36:18;;;;;;;8.50;3.30;;;16.90;99.90;;;;;;5111241;28;20207;-81
2022/10/28 06:38:46;;;;;;;8.90;3.80;;;17.10;99.90;;;;;;5115735;27;20216;-80
2022/10/28 06:41:13;;;;;;;10.95;3.97;;;17.20;99.90;;;;;;5112644;28;20231;-80
2022/10/28 06:43:39;;;;;;;12.35;4.57;;;17.30;6.70;;;;;;5116437;28;20205;-80
2022/10/28 06:46:06;;;;;;;9.52;4.28;;;17.10;65.90;;;;;;5111332;28;20203;-79
2022/10/28 06:48:33;;;;;;;7.00;3.35;;;17.30;1.00;;;;;;5112215;27;20192;-81
2022/10/28 06:51:02;;;;;;;9.02;3.80;;;17.20;60.80;;;;;;5121036;27;20211;-81
2022/10/28 06:53:28;;;;;;;7.65;3.17;;;17.00;99.90;;;;;;5115688;28;20217;-81
2022/10/28 06:55:57;;;;;;;6.75;3.00;;;16.90;99.90;;;;;;5118328;27;20204;-80
2022/10/28 06:58:24;;;;;;;9.73;3.50;;;16.70;99.90;;;;;;5105514;27;20288;-80
2022/10/28 07:00:51;;;;;;;7.60;3.40;;;16.60;99.90;;;;;;5110776;28;20232;-80
2022/10/28 07:03:18;;;;;;;11.57;4.05;;;16.70;99.90;;;;;;5111183;28;20207;-80
2022/10/28 07:05:46;;;;;;;11.30;4.30;;;16.60;99.90;;;;;;5108696;28;20216;-81
2022/10/28 07:08:14;;;;;;;5.25;3.35;;;16.60;99.90;;;;;;5114375;28;20671;-81
2022/10/28 07:10:41;;;;;;;7.82;3.20;;;16.60;99.90;;;;;;5112960;28;20248;-81
2022/10/28 07:13:08;;;;;;;10.10;3.70;;;16.50;99.90;;;;;;5107780;28;20573;-81
2022/10/28 07:15:35;;;;;;;11.27;3.63;;;16.50;99.90;;;;;;5106661;28;20198;-80
2022/10/28 07:18:02;;;;;;;10.77;3.55;;;16.50;99.90;;;;;;5108333;28;20572;-80
2022/10/28 07:20:30;;;;;;;8.40;3.28;;;16.70;99.90;;;;;;5107227;28;20218;-81
2022/10/28 07:22:57;;;;;;;6.85;3.35;;;16.70;99.90;;;;;;5114296;27;20193;-81
2022/10/28 07:25:26;;;;;;;6.63;2.90;;;16.70;99.90;;;;;;5113189;28;20201;-80
2022/10/28 07:27:53;;;;;;;12.60;5.72;;;16.90;99.90;;;;;;5110440;28;20212;-80
2022/10/28 07:30:20;;;;;;;13.73;7.78;;;16.80;99.90;;;;;;5112163;28;20223;-80
2022/10/28 07:32:46;;;;;;;12.23;5.18;;;17.10;99.90;;;;;;5118671;27;20212;-80
2022/10/28 07:35:13;;;;;;;7.93;3.60;;;17.00;99.90;;;;;;5108693;28;20202;-80
2022/10/28 07:37:40;;;;;;;6.50;3.22;;;17.20;99.90;;;;;;5114156;27;20201;-81
2022/10/28 07:40:08;;;;;;;11.07;3.40;;;17.60;99.90;;;;;;5111493;28;20220;-80
2022/10/28 07:42:38;;;;;;;9.73;3.95;;;18.00;99.90;;;;;;5113396;28;20680;-81
2022/10/28 07:45:06;;;;;;;13.68;4.20;;;18.30;1.00;;;;;;5112730;27;20206;-81
2022/10/28 07:47:33;;;;;;;12.23;3.53;;;18.70;1.00;;;;;;5114885;27;20212;-81
2022/10/28 07:50:00;;;;;;;7.63;3.40;;;18.80;99.90;;;;;;5112505;28;20224;-82
2022/10/28 07:52:26;;;;;;;11.82;3.75;;;18.60;99.90;;;;;;5110967;28;20221;-81
2022/10/28 07:54:53;;;;;;;9.52;3.45;;;18.70;99.90;;;;;;5113711;27;20210;-80
2022/10/28 07:57:20;;;;;;;8.40;3.20;;;18.90;1.00;;;;;;5108404;28;20197;-81
2022/10/28 07:59:48;;;;;;;5.82;2.90;;;19.00;1.00;;;;;;5112091;27;20646;-80
2022/10/28 08:02:17;;;;;;;8.02;3.22;;;19.30;99.90;;;;;;5115133;27;20197;-80
2022/10/28 08:04:44;;;;;;;9.18;3.58;;;19.40;1.00;;;;;;5114252;28;20675;-80
2022/10/28 08:07:11;;;;;;;9.48;3.40;;;19.80;1.00;;;;;;5109711;27;20692;-80
2022/10/28 08:09:38;;;;;;;11.10;4.43;;;19.80;7.20;;;;;;5123795;27;20221;-81
2022/10/28 08:12:06;;;;;;;9.48;3.72;;;19.90;99.90;;;;;;5122093;27;20216;-80
2022/10/28 08:14:32;;;;;;;14.90;3.92;;;20.10;1.00;;;;;;5119401;28;20205;-81
2022/10/28 08:17:01;;;;;;;8.93;3.75;;;20.00;99.90;;;;;;5120270;28;20202;-80
2022/10/28 08:19:28;;;;;;;10.10;3.25;;;19.70;1.00;;;;;;5116325;28;20278;-81
2022/10/28 08:21:54;;;;;;;11.32;3.53;;;19.70;1.00;;;;;;5109277;28;20208;-82
2022/10/28 08:24:21;;;;;;;6.63;3.40;;;19.80;99.90;;;;;;5110278;28;20197;-81
2022/10/28 08:26:51;;;;;;;10.52;3.50;;;19.60;1.00;;;;;;5112451;28;20201;-81
2022/10/28 08:29:18;;;;;;;12.82;3.28;;;19.60;1.00;;;;;;5114381;28;20216;-81
2022/10/28 08:31:44;;;;;;;10.38;3.75;;;19.80;99.90;;;;;;5113281;28;20193;-81
2022/10/28 08:34:13;;;;;;;6.90;3.38;;;19.70;1.00;;;;;;5102510;28;20700;-80
2022/10/28 08:36:39;;;;;;;9.13;3.22;;;19.80;1.00;;;;;;5110632;28;20197;-80
2022/10/28 08:39:06;;;;;;;10.95;3.30;;;19.80;99.90;;;;;;5115137;28;20945;-81
2022/10/28 08:41:38;;;;;;;8.98;3.53;;;19.70;99.90;;;;;;5120984;28;20197;-80
2022/10/28 08:44:37;;;;;;;7.47;3.33;;;19.70;99.90;;;;;;5110170;28;20201;-80
2022/10/28 08:47:15;;;;;;;12.45;3.60;;;19.80;99.90;;;;;;5113786;28;20224;-80
2022/10/28 08:49:46;;;;;;;10.40;3.60;;;20.00;1.00;;;;;;5116104;27;20256;-80
2022/10/28 08:52:25;;;;;;;9.15;3.22;;;20.10;1.00;;;;;;5113721;28;20213;-80
2022/10/28 08:54:55;;;;;;;10.27;3.13;;;20.10;1.00;;;;;;5117212;28;20197;-80
2022/10/28 08:57:33;;;;;;;13.35;3.42;;;20.00;99.90;;;;;;5111191;28;20196;-80
2022/10/28 09:00:02;;;;;;;8.90;3.50;;;20.00;1.00;;;;;;5113868;28;20222;-80
2022/10/28 09:02:38;;;;;;;9.25;3.40;;;20.30;1.00;;;;;;5115051;27;20201;-81
2022/10/28 09:05:19;;;;;;;9.45;3.33;;;20.30;99.90;;;;;;5111963;27;20593;-81
2022/10/28 09:07:46;;;;;;;6.30;3.00;;;20.50;1.00;;;;;;5117022;27;20205;-82
2022/10/28 09:10:15;;;;;;;7.78;3.88;;;20.50;1.00;;;;;;5115921;28;20707;-82
2022/10/28 09:12:50;;;;;;;7.28;3.47;;;20.50;23.50;;;;;;5118615;27;20255;-81
2022/10/28 09:15:29;;;;;;;11.98;3.53;;;20.30;1.00;;;;;;5117186;28;20201;-82
2022/10/28 09:18:03;;;;;;;7.72;3.78;;;20.40;1.00;;;;;;5116751;27;20200;-82
2022/10/28 09:20:44;;;;;;;6.53;3.30;;;20.40;1.00;;;;;;5115184;27;20213;-82
2022/10/28 09:23:21;;;;;;;9.52;3.67;;;20.50;99.90;;;;;;5120822;27;20197;-81
2022/10/28 09:25:59;;;;;;;10.77;4.05;;;20.60;99.90;;;;;;5112452;28;20201;-81
2022/10/28 09:28:38;;;;;;;11.40;3.80;;;20.90;1.00;;;;;;5111926;28;20196;-81
2022/10/28 09:31:13;;;;;;;10.77;3.50;;;21.00;1.00;;;;;;5114282;28;20197;-81
2022/10/28 09:33:51;;;;;;;11.00;3.63;;;21.10;99.90;;;;;;5122554;27;20212;-81
2022/10/28 09:36:23;;;;;;;10.07;4.10;;;21.00;99.90;;;;;;5125011;27;20199;-81
2022/10/28 09:38:53;;;;;;;11.43;3.30;;;21.10;1.00;;;;;;5114695;28;20286;-80
2022/10/28 09:41:24;;;;;;;10.13;3.47;;;21.10;1.00;;;;;;5115514;27;20220;-81
2022/10/28 09:43:53;;;;;;;10.50;3.78;;;21.40;1.00;;;;;;5117544;27;20209;-81
2022/10/28 09:46:23;;;;;;;10.20;3.92;;;21.60;1.00;;;;;;5118876;27;20193;-81
2022/10/28 09:48:51;;;;;;;10.68;3.53;;;21.90;1.00;;;;;;5109739;28;20193;-82
2022/10/28 09:51:31;;;;;;;11.82;2.88;;;22.20;99.90;;;;;;5116049;27;20210;-81
2022/10/28 09:53:59;;;;;;;11.30;3.78;;;22.50;99.90;;;;;;5118279;27;20230;-82
2022/10/28 09:56:27;;;;;;;8.38;3.40;;;22.90;61.40;;;;;;5114377;27;20233;-81
2022/10/28 09:58:58;;;;;;;14.90;3.58;;;23.00;99.90;;;;;;5113533;28;20205;-81
2022/10/28 10:01:25;;;;;;;11.68;3.97;;;23.20;1.00;;;;;;5110740;28;20204;-81
2022/10/28 10:03:52;;;;;;;8.68;3.42;;;23.40;1.00;;;;;;5118906;28;20189;-81
2022/10/28 10:06:23;;;;;;;6.00;3.00;;;23.40;1.00;;;;;;5120498;28;20235;-81
2022/10/28 10:08:54;;;;;;;9.18;4.25;;;23.60;1.00;;;;;;5119870;27;20196;-81
2022/10/28 10:11:29;;;;;;;10.63;3.22;;;23.60;1.00;;;;;;5110866;28;20343;-81
2022/10/28 10:13:59;;;;;;;11.65;3.33;;;23.70;1.00;;;;;;5116318;27;20216;-81
2022/10/28 10:16:33;;;;;;;12.80;5.32;;;23.80;1.00;;;;;;5116916;28;20580;-81
2022/10/28 10:19:05;;;;;;;8.20;3.53;;;23.80;1.00;;;;;;5115131;27;20223;-82
2022/10/28 10:21:43;;;;;;;10.65;3.78;;;23.90;1.00;;;;;;5111292;28;20221;-82
2022/10/28 10:24:25;;;;;;;8.13;3.08;;;23.80;1.00;;;;;;5111708;28;20464;-82
2022/10/28 10:26:53;;;;;;;11.32;3.55;;;24.10;1.00;;;;;;5112708;28;20256;-82
2022/10/28 10:29:21;;;;;;;12.82;3.58;;;23.90;1.00;;;;;;5115176;28;20244;-82
2022/10/28 10:31:48;;;;;;;13.05;3.38;;;23.90;1.00;;;;;;5108320;28;20208;-81
2022/10/28 10:34:23;;;;;;;10.30;3.58;;;24.00;1.00;;;;;;5109346;28;20600;-82
2022/10/28 10:36:54;;;;;;;12.15;3.55;;;23.90;1.00;;;;;;5111937;27;20683;-81
2022/10/28 10:39:25;;;;;;;10.45;3.65;;;23.80;1.00;;;;;;5109341;28;20300;-82
2022/10/28 10:41:54;;;;;;;7.90;3.20;;;24.00;1.00;;;;;;5110056;28;20624;-81
2022/10/28 10:44:31;;;;;;;9.43;3.50;;;24.10;1.00;;;;;;5112617;27;20199;-81
2022/10/28 10:47:21;;;;;;;11.00;3.30;;;24.00;1.00;;;;;;5112524;28;20241;-81
2022/10/28 10:49:50;;;;;;;11.40;4.07;;;24.30;1.00;;;;;;5112658;28;20716;-82
2022/10/28 10:52:20;;;;;;;11.30;3.60;;;24.30;1.00;;;;;;5107223;28;20378;-82
2022/10/28 10:55:01;;;;;;;13.18;3.22;;;24.70;99.90;;;;;;5107688;28;20646;-81
2022/10/28 10:57:30;;;;;;;13.20;3.58;;;24.50;99.90;;;;;;5109948;27;20220;-82
2022/10/28 10:59:57;;;;;;;12.68;3.47;;;24.70;1.00;;;;;;5122424;27;20255;-81
2022/10/28 11:02:28;;;;;;;10.77;3.25;;;24.70;99.90;;;;;;5118987;27;20269;-81
2022/10/28 11:04:58;;;;;;;14.13;3.15;;;24.50;99.90;;;;;;5112527;27;20189;-81
2022/10/28 11:07:27;;;;;;;6.78;3.33;;;24.60;99.90;;;;;;5111776;28;20244;-81
2022/10/28 11:09:54;;;;;;;9.90;3.15;;;24.70;99.90;;;;;;5113694;28;20243;-82
2022/10/28 11:12:31;;;;;;;9.82;3.13;;;25.00;99.90;;;;;;5117023;27;20234;-81
2022/10/28 11:14:59;;;;;;;7.00;3.28;;;25.00;99.90;;;;;;5115400;27;20590;-82
2022/10/28 11:17:29;;;;;;;8.32;3.30;;;24.90;99.90;;;;;;5112626;28;20283;-82
2022/10/28 11:19:58;;;;;;;10.43;3.38;;;25.00;99.90;;;;;;5110497;27;20232;-82
2022/10/28 11:22:38;;;;;;;10.00;3.40;;;25.00;99.90;;;;;;5113435;28;20268;-81
2022/10/28 11:25:33;;;;;;;10.80;3.90;;;24.80;99.90;;;;;;5113454;28;20732;-81
2022/10/28 11:28:13;;;;;;;9.45;3.67;;;25.20;99.90;;;;;;5112430;27;20637;-81
2022/10/28 11:30:52;;;;;;;9.60;3.65;;;25.40;99.90;;;;;;5111328;28;20216;-82
2022/10/28 11:33:22;;;;;;;9.40;3.60;;;25.60;99.90;;;;;;5118325;27;20241;-82
2022/10/28 11:36:03;;;;;;;9.18;3.42;;;25.80;99.90;;;;;;5115328;27;20536;-82
2022/10/28 11:38:47;;;;;;;11.60;3.25;;;25.70;99.90;;;;;;5105679;28;20208;-80
2022/10/28 11:41:23;;;;;;;9.32;3.40;;;25.70;99.90;;;;;;5107937;28;20197;-81
2022/10/28 11:43:54;;;;;;;9.10;3.47;;;25.90;99.90;;;;;;5105961;28;20192;-81
2022/10/28 11:46:37;;;;;;;8.88;3.15;;;25.70;99.90;;;;;;5110869;28;20197;-80
2022/10/28 11:49:31;;;;;;;8.52;3.50;;;25.80;99.90;;;;;;5105161;28;20719;-81
2022/10/28 11:52:13;;;;;;;12.30;3.22;;;25.90;99.90;;;;;;5106988;28;20215;-81
2022/10/28 11:54:53;;;;;;;9.75;3.45;;;26.00;99.90;;;;;;5113834;27;20220;-82
2022/10/28 11:57:32;;;;;;;8.20;3.20;;;26.10;99.90;;;;;;5110890;28;20649;-81
2022/10/28 12:00:22;;;;;;;7.55;3.40;;;26.20;99.90;;;;;;5106478;28;20223;-81
2022/10/28 12:03:02;;;;;;;9.15;3.53;;;25.90;99.90;;;;;;5118185;27;20289;-81
2022/10/28 12:05:34;;;;;;;9.82;3.47;;;26.00;99.90;;;;;;5111923;28;20192;-81
2022/10/28 12:08:27;;;;;;;11.15;3.55;;;26.20;99.90;;;;;;5112525;27;20206;-81
2022/10/28 12:11:14;;;;;;;6.95;3.10;;;27.30;61.40;;;;;;5113510;28;20220;-81
2022/10/28 12:13:48;;;;;;;10.90;3.05;;;27.90;75.30;;;;;;5107810;28;20474;-81
2022/10/28 12:16:22;;;;;;;8.95;3.58;;;27.80;44.00;;;;;;5110206;28;20197;-81
2022/10/28 12:18:55;;;;;;;9.05;3.40;;;26.70;17.10;;;;;;5110627;28;20573;-81
2022/10/28 12:21:31;;;;;;;11.15;3.22;;;26.30;32.50;;;;;;5108812;28;20203;-81
2022/10/28 12:23:59;;;;;;;8.73;2.92;;;26.60;18.70;;;;;;5107293;28;20188;-81
2022/10/28 12:26:37;;;;;;;9.38;3.63;;;26.80;10.00;;;;;;5117001;28;20481;-81
2022/10/28 12:29:11;;;;;;;12.63;3.95;;;26.70;1.90;;;;;;5115326;28;20710;-81
2022/10/28 12:31:43;;;;;;;10.63;3.15;;;26.40;1.00;;;;;;5121206;28;20196;-82
2022/10/28 12:34:15;;;;;;;9.32;3.47;;;26.20;1.00;;;;;;5121103;28;20217;-82
2022/10/28 12:36:48;;;;;;;10.40;3.13;;;25.90;19.80;;;;;;5118937;28;20260;-82
2022/10/28 12:39:21;;;;;;;8.40;3.20;;;25.10;56.50;;;;;;5119543;28;20498;-82
2022/10/28 12:41:56;;;;;;;6.82;3.38;;;25.00;49.60;;;;;;5121152;28;20211;-82
2022/10/28 12:44:27;;;;;;;8.82;3.45;;;25.70;1.00;;;;;;5121994;28;20205;-81
2022/10/28 12:47:02;;;;;;;10.48;3.35;;;25.70;1.00;;;;;;5121640;28;20684;-82
2022/10/28 12:49:39;;;;;;;6.65;3.17;;;25.30;1.00;;;;;;5121123;28;20552;-82
2022/10/28 12:52:17;;;;;;;9.43;3.47;;;25.10;79.60;;;;;;5120255;28;20226;-81
2022/10/28 12:54:57;;;;;;;13.55;3.90;;;25.00;33.80;;;;;;5120416;28;20226;-82
2022/10/28 12:57:25;;;;;;;8.63;3.47;;;25.30;53.90;;;;;;5119570;28;20226;-82
2022/10/28 12:59:56;;;;;;;13.38;3.85;;;25.70;47.10;;;;;;5119283;28;20731;-81
2022/10/28 13:02:29;;;;;;;12.93;3.53;;;25.60;59.50;;;;;;5120420;28;20215;-82
2022/10/28 13:04:57;;;;;;;12.00;3.38;;;26.00;18.80;;;;;;5119889;28;20185;-81